Time;durP1;ratioP1;P1;durP2;ratioP2;P2;SDS_P1;SDS_P2;PMS_P1;PMS_P2;Temp;Humidity;BMP_temperature;BMP_pressure;BME280_temperature;BME280_humidity;BME280_pressure;Samples;Min_cycle;Max_cycle;Signal;HPM_P1;HPM_P2
2020/12/02 00:00:21;;;;;;;23.45;14.77;;;2.10;68.00;;;;;;5076585;28;20340;-73
2020/12/02 00:03:01;;;;;;;15.75;13.00;;;2.10;66.50;;;;;;5076274;28;20016;-73
2020/12/02 00:05:29;;;;;;;19.67;13.75;;;2.10;67.10;;;;;;5076296;28;20031;-73
2020/12/02 00:08:05;;;;;;;20.42;13.90;;;2.10;67.60;;;;;;5076205;28;20035;-73
2020/12/02 00:10:31;;;;;;;19.75;13.23;;;2.10;67.70;;;;;;5076432;28;20032;-73
2020/12/02 00:12:57;;;;;;;19.50;13.32;;;2.20;67.60;;;;;;5076202;28;20104;-73
2020/12/02 00:15:22;;;;;;;19.95;13.55;;;2.20;65.90;;;;;;5076251;28;20108;-73
2020/12/02 00:17:55;;;;;;;19.35;12.88;;;2.30;66.40;;;;;;5075910;28;20098;-73
2020/12/02 00:20:21;;;;;;;25.30;14.40;;;2.30;66.30;;;;;;5076184;28;20107;-73
2020/12/02 00:22:47;;;;;;;18.38;14.02;;;2.30;66.00;;;;;;5058366;28;20048;-73
2020/12/02 00:25:12;;;;;;;21.10;13.98;;;2.30;65.80;;;;;;5058271;28;20447;-73
2020/12/02 00:27:38;;;;;;;19.05;12.75;;;2.30;66.20;;;;;;5076487;28;20059;-73
2020/12/02 00:30:12;;;;;;;18.42;13.25;;;2.20;66.50;;;;;;5058369;28;20040;-73
2020/12/02 00:32:40;;;;;;;16.90;13.05;;;2.10;66.30;;;;;;5076063;28;20028;-73
2020/12/02 00:35:19;;;;;;;19.75;14.40;;;2.10;66.20;;;;;;5075968;28;20077;-73
2020/12/02 00:37:46;;;;;;;20.13;15.02;;;2.00;65.70;;;;;;5079013;28;20054;-73
2020/12/02 00:40:14;;;;;;;21.20;13.80;;;2.00;65.50;;;;;;5079637;28;20021;-73
2020/12/02 00:42:39;;;;;;;16.67;12.23;;;2.00;65.10;;;;;;5079538;28;20017;-73
2020/12/02 00:45:08;;;;;;;20.75;13.18;;;2.10;64.70;;;;;;5079477;28;20036;-73
2020/12/02 00:47:36;;;;;;;20.65;13.18;;;2.10;65.20;;;;;;5079481;28;20199;-73
2020/12/02 00:50:06;;;;;;;18.52;13.20;;;2.10;65.40;;;;;;5061697;28;20028;-73
2020/12/02 00:52:31;;;;;;;19.73;13.38;;;2.10;65.20;;;;;;5079345;28;20024;-73
2020/12/02 00:54:57;;;;;;;15.85;11.35;;;2.20;66.30;;;;;;5079292;28;20029;-73
2020/12/02 00:57:29;;;;;;;16.73;12.35;;;2.20;65.40;;;;;;5061432;28;20020;-73
2020/12/02 00:59:58;;;;;;;18.30;13.40;;;2.30;64.50;;;;;;5061512;28;20124;-73
2020/12/02 01:02:41;;;;;;;15.45;11.77;;;2.30;65.40;;;;;;5079238;28;20044;-73
2020/12/02 01:05:13;;;;;;;16.52;11.80;;;2.30;65.00;;;;;;5079222;28;20024;-73
2020/12/02 01:07:41;;;;;;;22.23;13.45;;;2.40;64.80;;;;;;5061388;28;20427;-73
2020/12/02 01:10:08;;;;;;;18.25;11.65;;;2.40;65.40;;;;;;5079336;28;20366;-73
2020/12/02 01:12:33;;;;;;;19.33;13.20;;;2.40;67.10;;;;;;5079025;28;20153;-73
2020/12/02 01:15:00;;;;;;;20.27;13.18;;;2.50;66.20;;;;;;5061116;28;20032;-73
2020/12/02 01:17:26;;;;;;;19.48;13.40;;;2.50;66.20;;;;;;5078684;28;20059;-73
2020/12/02 01:19:51;;;;;;;20.48;13.00;;;2.40;67.00;;;;;;5079150;28;20107;-73
2020/12/02 01:22:25;;;;;;;15.77;12.20;;;2.50;68.40;;;;;;5061136;28;20021;-73
2020/12/02 01:25:12;;;;;;;18.20;12.80;;;2.40;67.30;;;;;;5078744;28;20039;-73
2020/12/02 01:27:40;;;;;;;16.75;12.50;;;2.30;65.30;;;;;;5078706;28;20024;-73
2020/12/02 01:30:08;;;;;;;18.50;12.65;;;2.30;66.20;;;;;;5079306;28;20032;-73
2020/12/02 01:32:35;;;;;;;18.77;13.13;;;2.30;66.00;;;;;;5078484;28;20029;-73
2020/12/02 01:35:00;;;;;;;18.30;12.98;;;2.40;65.20;;;;;;5060763;28;20032;-73
2020/12/02 01:37:33;;;;;;;18.73;13.15;;;2.40;65.00;;;;;;5078443;28;20309;-73
2020/12/02 01:40:05;;;;;;;17.73;12.98;;;2.30;66.50;;;;;;5078797;28;20024;-73
2020/12/02 01:42:31;;;;;;;19.58;12.45;;;2.30;65.40;;;;;;5078695;28;20400;-73
2020/12/02 01:44:57;;;;;;;16.27;12.43;;;2.20;65.80;;;;;;5078205;28;20091;-73
2020/12/02 01:47:51;;;;;;;22.45;14.27;;;2.20;65.20;;;;;;5060064;28;20078;-73
2020/12/02 01:50:39;;;;;;;17.20;12.55;;;2.20;65.50;;;;;;5060547;28;20032;-73
2020/12/02 01:53:12;;;;;;;16.08;11.65;;;2.10;64.60;;;;;;5078248;28;20145;-73
2020/12/02 01:55:57;;;;;;;19.05;13.40;;;2.10;64.40;;;;;;5078124;28;20064;-73
2020/12/02 01:58:50;;;;;;;19.80;13.50;;;2.10;65.20;;;;;;5078275;28;20024;-73
2020/12/02 02:01:22;;;;;;;15.80;11.55;;;2.20;65.00;;;;;;5078082;28;20029;-73
2020/12/02 02:03:50;;;;;;;20.60;12.70;;;2.20;65.20;;;;;;5078511;28;20104;-73
2020/12/02 02:06:44;;;;;;;17.17;12.60;;;2.20;65.10;;;;;;5060197;28;20028;-73
2020/12/02 02:09:10;;;;;;;17.52;12.10;;;2.30;65.20;;;;;;5068598;28;20039;-73
2020/12/02 02:11:41;;;;;;;19.92;13.07;;;2.40;66.20;;;;;;5077882;28;20029;-73
2020/12/02 02:14:31;;;;;;;16.25;12.27;;;2.40;66.50;;;;;;5060007;28;20020;-73
2020/12/02 02:16:57;;;;;;;20.27;12.95;;;2.50;66.40;;;;;;5077805;28;20044;-73
2020/12/02 02:19:25;;;;;;;18.63;12.55;;;2.50;66.90;;;;;;5077698;28;20043;-73
2020/12/02 02:21:54;;;;;;;17.98;12.50;;;2.40;68.70;;;;;;5077601;28;20103;-73
2020/12/02 02:24:21;;;;;;;17.52;13.35;;;2.40;68.40;;;;;;5077826;28;20036;-73
2020/12/02 02:26:50;;;;;;;18.27;12.52;;;2.40;67.40;;;;;;5077536;28;20028;-73
2020/12/02 02:29:26;;;;;;;21.17;13.63;;;2.40;69.10;;;;;;5077662;28;20039;-73
2020/12/02 02:32:01;;;;;;;20.67;14.25;;;2.40;68.80;;;;;;5059756;28;20028;-73
2020/12/02 02:34:29;;;;;;;20.60;14.48;;;2.40;68.90;;;;;;5077621;28;20366;-73
2020/12/02 02:36:56;;;;;;;17.25;13.40;;;2.40;69.20;;;;;;5077300;28;20362;-73
2020/12/02 02:39:22;;;;;;;17.98;13.48;;;2.30;69.80;;;;;;5077351;28;20096;-73
2020/12/02 02:41:54;;;;;;;19.33;13.57;;;2.30;69.80;;;;;;5077299;28;20032;-73
2020/12/02 02:44:19;;;;;;;18.02;13.68;;;2.30;70.20;;;;;;5077296;28;20025;-73
2020/12/02 02:46:45;;;;;;;18.42;13.38;;;2.20;69.60;;;;;;5077677;28;20035;-73
2020/12/02 02:49:11;;;;;;;17.55;12.30;;;2.20;70.30;;;;;;5077170;28;20031;-73
2020/12/02 02:51:37;;;;;;;18.52;13.35;;;2.30;69.90;;;;;;5077150;28;20148;-73
2020/12/02 02:54:03;;;;;;;20.92;12.65;;;2.30;68.40;;;;;;5077020;28;20055;-73
2020/12/02 02:56:28;;;;;;;18.30;12.88;;;2.30;66.80;;;;;;5077244;28;20025;-73
2020/12/02 02:58:54;;;;;;;18.90;13.57;;;2.30;65.60;;;;;;5076201;28;20060;-73
2020/12/02 03:01:20;;;;;;;18.35;13.63;;;2.30;66.20;;;;;;5076993;28;20028;-73
2020/12/02 03:03:46;;;;;;;21.10;12.50;;;2.30;66.10;;;;;;5076934;28;20089;-73
2020/12/02 03:06:11;;;;;;;17.23;13.25;;;2.40;66.60;;;;;;5059219;28;20107;-73
2020/12/02 03:08:37;;;;;;;15.82;12.57;;;2.40;68.40;;;;;;5076875;28;20017;-73
2020/12/02 03:11:06;;;;;;;18.60;14.68;;;2.40;69.20;;;;;;5076862;28;20032;-73
2020/12/02 03:13:52;;;;;;;18.83;13.18;;;2.40;66.90;;;;;;5059029;28;20032;-73
2020/12/02 03:16:43;;;;;;;17.60;12.77;;;2.30;66.40;;;;;;5059004;28;20052;-73
2020/12/02 03:19:31;;;;;;;19.35;13.07;;;2.30;68.10;;;;;;5077003;28;20049;-73
2020/12/02 03:22:02;;;;;;;17.02;12.93;;;2.30;66.50;;;;;;5076924;28;20060;-73
2020/12/02 03:24:29;;;;;;;18.45;13.73;;;2.30;67.80;;;;;;5076528;28;20082;-73
2020/12/02 03:26:54;;;;;;;17.42;13.55;;;2.30;66.80;;;;;;5076672;28;20017;-73
2020/12/02 03:29:22;;;;;;;17.50;12.80;;;2.30;66.10;;;;;;5076802;28;20099;-73
2020/12/02 03:31:48;;;;;;;16.08;12.00;;;2.20;65.90;;;;;;5076950;28;20380;-73
2020/12/02 03:34:16;;;;;;;16.40;12.48;;;2.10;65.70;;;;;;5076574;28;20044;-73
2020/12/02 03:36:42;;;;;;;16.40;11.65;;;2.00;66.00;;;;;;5076802;28;20372;-73
2020/12/02 03:39:09;;;;;;;19.73;13.82;;;2.00;66.50;;;;;;5076625;28;20029;-73
2020/12/02 03:41:36;;;;;;;18.48;13.48;;;1.90;67.20;;;;;;5076552;28;20031;-73
2020/12/02 03:44:02;;;;;;;20.30;12.88;;;1.90;67.40;;;;;;5076472;28;20321;-73
2020/12/02 03:46:27;;;;;;;17.33;12.45;;;1.90;66.80;;;;;;5076880;28;20032;-73
2020/12/02 03:48:53;;;;;;;18.83;13.63;;;1.80;67.00;;;;;;5076516;28;20111;-73
2020/12/02 03:51:19;;;;;;;18.42;11.50;;;1.80;67.60;;;;;;5058680;28;20029;-73
2020/12/02 03:53:44;;;;;;;19.35;12.35;;;1.70;67.40;;;;;;5076409;28;20029;-73
2020/12/02 03:56:10;;;;;;;17.10;12.43;;;1.80;67.80;;;;;;5076372;28;20032;-73
2020/12/02 03:58:36;;;;;;;17.42;12.70;;;1.80;67.90;;;;;;5076280;28;20079;-73
2020/12/02 04:01:03;;;;;;;19.95;12.38;;;1.80;67.50;;;;;;5076296;28;20071;-73
2020/12/02 04:03:29;;;;;;;20.48;13.18;;;1.80;67.70;;;;;;5076293;28;20024;-73
2020/12/02 04:05:55;;;;;;;19.48;12.82;;;1.80;68.30;;;;;;5076352;28;20027;-73
2020/12/02 04:08:20;;;;;;;16.25;11.70;;;1.90;67.20;;;;;;5076235;28;20462;-73
2020/12/02 04:10:46;;;;;;;17.17;12.75;;;1.80;67.60;;;;;;5078299;28;20401;-73
2020/12/02 04:13:12;;;;;;;21.30;13.18;;;1.80;67.10;;;;;;5080150;28;20021;-73
2020/12/02 04:15:37;;;;;;;19.52;14.48;;;1.80;68.00;;;;;;5062335;28;20317;-73
2020/12/02 04:18:03;;;;;;;19.98;13.40;;;1.80;68.40;;;;;;5079812;28;20387;-73
2020/12/02 04:20:29;;;;;;;20.20;13.35;;;1.80;69.80;;;;;;5080099;28;20024;-73
2020/12/02 04:22:55;;;;;;;17.10;12.98;;;1.80;70.50;;;;;;5079906;28;20039;-73
2020/12/02 04:25:25;;;;;;;22.23;14.23;;;1.80;70.00;;;;;;5079907;28;20025;-73
2020/12/02 04:27:51;;;;;;;18.67;13.75;;;1.80;70.50;;;;;;5079777;28;20051;-73
2020/12/02 04:30:18;;;;;;;19.20;13.52;;;1.80;71.20;;;;;;5080404;28;20048;-73
2020/12/02 04:32:45;;;;;;;20.85;14.60;;;1.70;72.30;;;;;;5079752;28;20024;-73
2020/12/02 04:35:11;;;;;;;21.70;15.57;;;1.70;72.00;;;;;;5079662;28;20057;-73
2020/12/02 04:37:37;;;;;;;18.90;13.75;;;1.60;71.40;;;;;;5079552;28;20032;-73
2020/12/02 04:40:11;;;;;;;23.38;15.45;;;1.60;71.80;;;;;;5079663;28;20017;-73
2020/12/02 04:42:42;;;;;;;19.75;14.13;;;1.70;72.70;;;;;;5079548;28;20020;-73
2020/12/02 04:45:13;;;;;;;17.63;13.93;;;1.80;72.10;;;;;;5079549;28;20108;-73
2020/12/02 04:47:41;;;;;;;21.95;14.70;;;1.90;72.80;;;;;;5079569;28;20111;-73
2020/12/02 04:50:22;;;;;;;20.70;14.13;;;1.90;71.60;;;;;;5061750;28;20047;-73
2020/12/02 04:53:16;;;;;;;20.15;14.50;;;2.00;71.00;;;;;;5079492;28;20024;-73
2020/12/02 04:55:43;;;;;;;20.17;14.75;;;1.80;72.00;;;;;;5079247;28;20035;-73
2020/12/02 04:58:32;;;;;;;19.65;13.88;;;1.80;72.20;;;;;;5079278;28;20298;-73
2020/12/02 05:01:27;;;;;;;19.58;13.75;;;1.80;71.80;;;;;;5061543;28;20024;-73
2020/12/02 05:04:15;;;;;;;19.20;13.40;;;1.90;71.20;;;;;;5079485;28;20028;-73
2020/12/02 05:06:44;;;;;;;21.48;14.50;;;1.90;71.60;;;;;;5079297;28;20025;-73
2020/12/02 05:09:17;;;;;;;18.65;14.07;;;1.90;71.10;;;;;;5079183;28;20029;-73
2020/12/02 05:12:12;;;;;;;18.55;14.50;;;1.90;72.40;;;;;;5079167;28;20048;-73
2020/12/02 05:14:40;;;;;;;20.08;14.10;;;2.00;72.60;;;;;;5079008;28;20016;-73
2020/12/02 05:17:17;;;;;;;19.38;14.80;;;2.00;72.00;;;;;;5078910;28;20045;-73
2020/12/02 05:20:06;;;;;;;20.70;13.90;;;1.90;71.40;;;;;;5079108;28;20032;-73
2020/12/02 05:22:41;;;;;;;19.15;13.75;;;1.90;71.60;;;;;;5078377;28;20312;-73
2020/12/02 05:25:29;;;;;;;18.85;12.95;;;1.90;73.30;;;;;;5078977;28;20021;-73
2020/12/02 05:28:52;;;;;;;21.40;14.18;;;1.90;72.00;;;;;;5078893;28;20340;-73
2020/12/02 05:31:22;;;;;;;19.48;13.50;;;1.90;71.50;;;;;;4997481;28;20378;-73
2020/12/02 05:33:48;;;;;;;17.83;13.20;;;1.90;71.60;;;;;;4997554;28;20319;-73
2020/12/02 05:36:23;;;;;;;19.30;13.98;;;1.90;72.30;;;;;;5037340;28;20086;-73
2020/12/02 05:39:06;;;;;;;18.67;13.48;;;1.90;72.10;;;;;;5078556;28;20021;-73
2020/12/02 05:41:33;;;;;;;18.25;13.98;;;1.90;70.60;;;;;;5078692;28;20035;-73
2020/12/02 05:44:01;;;;;;;20.35;13.45;;;1.90;70.50;;;;;;5078681;28;20361;-73
2020/12/02 05:46:33;;;;;;;19.00;13.20;;;1.90;69.40;;;;;;5060588;28;20036;-73
2020/12/02 05:49:34;;;;;;;20.13;13.73;;;1.90;69.80;;;;;;5078952;28;20060;-73
2020/12/02 05:52:01;;;;;;;20.40;14.40;;;1.90;70.50;;;;;;5052470;28;20047;-73
2020/12/02 05:54:27;;;;;;;19.50;13.55;;;1.80;71.20;;;;;;5078349;28;20115;-73
2020/12/02 05:56:53;;;;;;;18.15;13.27;;;1.80;71.40;;;;;;5078076;28;20028;-73
2020/12/02 05:59:22;;;;;;;19.83;13.90;;;1.70;71.50;;;;;;5078182;28;20012;-73
2020/12/02 06:01:48;;;;;;;20.50;14.57;;;1.50;72.40;;;;;;5078098;28;20013;-73
2020/12/02 06:04:16;;;;;;;23.90;14.50;;;1.50;71.30;;;;;;5077980;28;20107;-73
2020/12/02 06:06:56;;;;;;;19.10;13.90;;;1.60;72.20;;;;;;5077983;28;20028;-73
2020/12/02 06:09:38;;;;;;;19.25;13.77;;;1.60;73.40;;;;;;5078560;28;20059;-73
2020/12/02 06:12:04;;;;;;;23.08;14.30;;;1.60;72.50;;;;;;5077901;28;20029;-73
2020/12/02 06:14:33;;;;;;;20.23;13.45;;;1.60;71.90;;;;;;5077769;28;20103;-73
2020/12/02 06:17:00;;;;;;;20.35;13.93;;;1.60;73.20;;;;;;5059889;28;20436;-73
2020/12/02 06:19:38;;;;;;;21.92;15.40;;;1.70;73.10;;;;;;5077747;28;20025;-73
2020/12/02 06:22:05;;;;;;;18.85;13.82;;;1.70;72.50;;;;;;5078020;28;20052;-73
2020/12/02 06:24:41;;;;;;;19.73;13.82;;;1.70;74.10;;;;;;5077727;28;20062;-73
2020/12/02 06:27:15;;;;;;;22.75;15.25;;;1.80;72.60;;;;;;5077685;28;20024;-73
2020/12/02 06:29:50;;;;;;;20.58;13.48;;;1.80;71.70;;;;;;5077644;28;20052;-73
2020/12/02 06:32:25;;;;;;;18.92;13.68;;;1.90;70.80;;;;;;5077456;28;20028;-73
2020/12/02 06:35:14;;;;;;;14.77;10.32;;;2.00;71.40;;;;;;5077397;28;20088;-73
2020/12/02 06:37:40;;;;;;;19.83;12.32;;;2.10;70.20;;;;;;5077406;28;20327;-73
2020/12/02 06:40:11;;;;;;;16.23;10.80;;;2.30;71.30;;;;;;5059701;28;20020;-73
2020/12/02 06:42:42;;;;;;;13.50;10.02;;;2.40;69.40;;;;;;5077447;28;20031;-73
2020/12/02 06:45:30;;;;;;;15.43;10.48;;;2.60;68.30;;;;;;5077229;28;20025;-73
2020/12/02 06:48:00;;;;;;;19.15;13.85;;;2.60;70.20;;;;;;5076702;28;20044;-73
2020/12/02 06:50:35;;;;;;;17.55;12.73;;;2.60;69.10;;;;;;5077198;28;20043;-73
2020/12/02 06:53:30;;;;;;;13.50;9.95;;;2.50;69.80;;;;;;5059454;28;20032;-73
2020/12/02 06:56:01;;;;;;;19.77;12.95;;;2.40;67.70;;;;;;5042680;28;20043;-73
2020/12/02 06:58:27;;;;;;;18.02;13.15;;;2.40;70.20;;;;;;5059265;28;20024;-73
2020/12/02 07:00:56;;;;;;;17.98;12.88;;;2.40;71.40;;;;;;5059349;28;20320;-73
2020/12/02 07:03:24;;;;;;;19.90;14.10;;;2.40;71.00;;;;;;5076987;28;20020;-73
2020/12/02 07:06:05;;;;;;;21.85;14.75;;;2.40;71.50;;;;;;5076940;28;20044;-73
2020/12/02 07:08:35;;;;;;;18.58;12.73;;;2.40;71.00;;;;;;5077048;28;20381;-73
2020/12/02 07:11:12;;;;;;;19.80;13.23;;;2.30;70.50;;;;;;5077072;28;20024;-73
2020/12/02 07:13:42;;;;;;;20.27;12.95;;;2.30;72.90;;;;;;5076836;28;20028;-73
2020/12/02 07:16:21;;;;;;;13.73;9.73;;;2.30;72.30;;;;;;5076713;28;20025;-73
2020/12/02 07:18:55;;;;;;;14.65;10.77;;;2.40;71.70;;;;;;5077035;28;20082;-73
2020/12/02 07:21:58;;;;;;;20.25;13.93;;;2.50;70.20;;;;;;5076786;28;20028;-73
2020/12/02 07:24:37;;;;;;;18.85;11.57;;;2.60;71.80;;;;;;5045943;28;20103;-73
2020/12/02 07:27:04;;;;;;;16.38;11.68;;;2.60;72.90;;;;;;5076781;28;20017;-73
2020/12/02 07:29:30;;;;;;;16.50;12.38;;;2.60;73.10;;;;;;5076810;28;20039;-73
2020/12/02 07:31:59;;;;;;;18.20;12.57;;;2.60;72.80;;;;;;5076830;28;20039;-73
2020/12/02 07:34:25;;;;;;;16.88;12.13;;;2.50;72.00;;;;;;5076575;28;20074;-73
2020/12/02 07:36:57;;;;;;;17.67;11.07;;;2.50;71.10;;;;;;5076678;28;20017;-73
2020/12/02 07:39:24;;;;;;;19.20;10.07;;;2.60;70.90;;;;;;5076941;28;20070;-73
2020/12/02 07:42:17;;;;;;;16.90;11.27;;;2.70;68.10;;;;;;5076548;28;20400;-73
2020/12/02 07:44:49;;;;;;;17.70;12.07;;;2.70;69.30;;;;;;5076555;28;20325;-71
2020/12/02 07:47:16;;;;;;;14.73;11.38;;;2.60;69.90;;;;;;5080777;28;20032;-73
2020/12/02 07:49:53;;;;;;;16.92;11.20;;;2.50;69.60;;;;;;5080652;28;20078;-73
2020/12/02 07:52:43;;;;;;;16.20;11.45;;;2.50;69.20;;;;;;5080748;28;20078;-73
2020/12/02 07:55:30;;;;;;;23.90;13.80;;;2.50;69.80;;;;;;5080619;28;20089;-72
2020/12/02 07:57:57;;;;;;;16.33;11.82;;;2.50;70.60;;;;;;5080471;28;20417;-73
2020/12/02 08:00:31;;;;;;;19.13;13.27;;;2.50;70.60;;;;;;5080451;28;20082;-73
2020/12/02 08:02:57;;;;;;;21.33;13.15;;;2.50;69.30;;;;;;5080394;28;20085;-73
2020/12/02 08:05:51;;;;;;;19.02;12.73;;;2.40;68.60;;;;;;5080301;28;20028;-73
2020/12/02 08:08:17;;;;;;;18.40;13.40;;;2.20;69.50;;;;;;5080258;28;20020;-73
2020/12/02 08:10:42;;;;;;;20.52;14.00;;;2.10;71.00;;;;;;5062522;28;20430;-73
2020/12/02 08:13:19;;;;;;;21.33;14.35;;;1.90;73.60;;;;;;5080214;28;20035;-73
2020/12/02 08:15:53;;;;;;;24.05;15.85;;;1.70;75.20;;;;;;5080255;28;20037;-73
2020/12/02 08:18:22;;;;;;;20.70;14.00;;;1.50;76.90;;;;;;5062105;28;20051;-73
2020/12/02 08:20:48;;;;;;;22.48;14.70;;;1.40;78.20;;;;;;5080128;28;20025;-73
2020/12/02 08:23:23;;;;;;;22.17;13.40;;;1.20;80.10;;;;;;5079947;28;20024;-73
2020/12/02 08:26:16;;;;;;;21.02;14.23;;;1.00;81.30;;;;;;5079864;28;20370;-73
2020/12/02 08:28:43;;;;;;;21.08;13.35;;;0.90;82.90;;;;;;5071747;28;20064;-73
2020/12/02 08:31:25;;;;;;;20.25;14.25;;;0.80;83.90;;;;;;5062103;28;20153;-73
2020/12/02 08:34:26;;;;;;;21.20;14.02;;;0.60;85.00;;;;;;5080284;28;20016;-73
2020/12/02 08:37:21;;;;;;;21.65;13.45;;;0.50;86.20;;;;;;5080041;28;20055;-73
2020/12/02 08:39:53;;;;;;;23.55;14.65;;;0.40;87.40;;;;;;5079986;28;20166;-73
2020/12/02 08:42:30;;;;;;;20.70;15.30;;;0.50;87.70;;;;;;5079632;28;20024;-73
2020/12/02 08:45:24;;;;;;;20.75;14.93;;;0.40;88.50;;;;;;5079564;28;20023;-73
2020/12/02 08:47:57;;;;;;;19.67;14.13;;;0.40;89.40;;;;;;5079495;28;20044;-73
2020/12/02 08:50:30;;;;;;;21.33;14.95;;;0.40;89.80;;;;;;5079768;28;20029;-73
2020/12/02 08:52:58;;;;;;;23.52;14.70;;;0.50;89.60;;;;;;5079494;28;20039;-73
2020/12/02 08:55:25;;;;;;;18.13;12.57;;;0.40;89.50;;;;;;5061500;28;20027;-73
2020/12/02 08:57:51;;;;;;;17.48;13.20;;;0.50;89.90;;;;;;5077923;28;20032;-73
2020/12/02 09:00:18;;;;;;;18.20;13.65;;;0.50;90.50;;;;;;5079347;28;20028;-73
2020/12/02 09:02:44;;;;;;;18.00;13.57;;;0.70;90.40;;;;;;5061512;28;20024;-73
2020/12/02 09:05:11;;;;;;;19.48;13.85;;;0.60;89.70;;;;;;5079147;28;20020;-73
2020/12/02 09:07:36;;;;;;;17.20;12.77;;;0.60;90.60;;;;;;5079150;28;20056;-73
2020/12/02 09:10:03;;;;;;;15.40;11.65;;;0.60;89.30;;;;;;5061430;28;20412;-73
2020/12/02 09:12:30;;;;;;;17.00;13.07;;;0.70;90.00;;;;;;5079303;28;20082;-73
2020/12/02 09:14:55;;;;;;;14.50;11.68;;;0.80;90.30;;;;;;5078955;28;20025;-73
2020/12/02 09:17:21;;;;;;;15.02;11.10;;;0.90;89.90;;;;;;5078868;28;20117;-73
2020/12/02 09:19:48;;;;;;;13.90;10.82;;;0.90;89.80;;;;;;5079403;28;20023;-73
2020/12/02 09:22:13;;;;;;;15.13;11.80;;;1.00;88.90;;;;;;5079131;28;20032;-73
2020/12/02 09:24:40;;;;;;;17.20;10.98;;;1.10;90.10;;;;;;5078833;28;20024;-73
2020/12/02 09:27:07;;;;;;;14.20;10.70;;;1.20;89.30;;;;;;5078797;28;20421;-73
2020/12/02 09:29:33;;;;;;;13.63;11.00;;;1.30;89.70;;;;;;5078777;28;20016;-73
2020/12/02 09:31:59;;;;;;;11.13;8.55;;;1.40;89.30;;;;;;5060914;28;20024;-73
2020/12/02 09:34:24;;;;;;;5.88;4.20;;;1.40;90.00;;;;;;5078761;28;20012;-73
2020/12/02 09:36:50;;;;;;;6.90;5.80;;;1.70;91.00;;;;;;5078614;28;20024;-74
2020/12/02 09:39:16;;;;;;;3.63;2.78;;;1.90;90.40;;;;;;5078551;28;20012;-73
2020/12/02 09:41:51;;;;;;;3.92;3.13;;;2.00;90.70;;;;;;5078626;28;20052;-73
2020/12/02 09:44:35;;;;;;;3.95;2.70;;;2.30;90.00;;;;;;5078610;28;20027;-73
2020/12/02 09:47:13;;;;;;;2.25;1.70;;;2.50;89.30;;;;;;5078884;28;20029;-73
2020/12/02 09:49:40;;;;;;;11.35;8.27;;;2.60;89.40;;;;;;5078409;28;20027;-73
2020/12/02 09:52:09;;;;;;;13.43;8.85;;;2.60;88.30;;;;;;5078308;28;20405;-73
2020/12/02 09:54:43;;;;;;;12.80;10.05;;;2.40;87.30;;;;;;5078509;28;20322;-73
2020/12/02 09:57:19;;;;;;;15.10;11.52;;;2.20;87.60;;;;;;5078110;28;20371;-73
2020/12/02 09:59:45;;;;;;;114.57;15.07;;;2.00;88.90;;;;;;5078338;28;20070;-73
2020/12/02 10:02:46;;;;;;;118.53;14.20;;;1.90;89.70;;;;;;5078344;28;20035;-73
2020/12/02 10:05:26;;;;;;;10.60;8.15;;;1.80;90.50;;;;;;5005565;28;20026;-73
2020/12/02 10:08:18;;;;;;;12.27;9.43;;;1.70;90.90;;;;;;5069987;28;20056;-73
2020/12/02 10:11:06;;;;;;;10.85;8.23;;;1.80;92.10;;;;;;5058065;28;20029;-73
2020/12/02 10:14:15;;;;;;;11.23;9.48;;;1.90;92.10;;;;;;5058043;28;20056;-73
2020/12/02 10:17:22;;;;;;;9.07;6.80;;;1.90;91.50;;;;;;5057935;28;20053;-73
2020/12/02 10:20:02;;;;;;;219.85;18.02;;;2.00;90.80;;;;;;5040453;28;20340;-73
2020/12/02 10:22:48;;;;;;;824.33;44.53;;;1.90;89.90;;;;;;5057743;28;20021;-73
2020/12/02 10:25:59;;;;;;;1765.80;86.72;;;1.80;90.20;;;;;;5057746;28;20078;-74
2020/12/02 10:28:44;;;;;;;1477.90;77.15;;;1.60;89.60;;;;;;5057589;28;20029;-73
2020/12/02 10:31:17;;;;;;;1549.20;79.65;;;1.30;91.00;;;;;;5039859;28;20040;-73
2020/12/02 10:34:06;;;;;;;1082.53;53.35;;;1.10;91.30;;;;;;5057767;28;20025;-73
2020/12/02 10:36:36;;;;;;;889.08;43.75;;;0.90;91.50;;;;;;5043276;28;20154;-73
2020/12/02 10:39:10;;;;;;;673.17;31.67;;;0.70;92.10;;;;;;5057429;28;20421;-73
2020/12/02 10:41:38;;;;;;;360.20;20.55;;;0.70;93.10;;;;;;5057345;28;20025;-73
2020/12/02 10:44:19;;;;;;;272.40;14.50;;;0.70;93.20;;;;;;5057633;28;20376;-74
2020/12/02 10:46:57;;;;;;;6.90;5.40;;;0.70;93.40;;;;;;5057708;28;20309;-73
2020/12/02 10:49:32;;;;;;;6.32;5.32;;;0.80;94.10;;;;;;5057505;28;20021;-73
2020/12/02 10:52:00;;;;;;;689.13;33.38;;;0.90;94.20;;;;;;5057172;28;20023;-73
2020/12/02 10:54:32;;;;;;;332.02;15.45;;;1.00;94.00;;;;;;5057090;28;20054;-73
2020/12/02 10:56:58;;;;;;;299.58;15.30;;;1.10;93.00;;;;;;5057216;28;20044;-73
2020/12/02 10:59:25;;;;;;;28.55;6.40;;;1.10;92.80;;;;;;5057198;28;20025;-73
2020/12/02 11:01:52;;;;;;;8.10;5.18;;;1.20;92.70;;;;;;5056975;28;20360;-73
2020/12/02 11:04:19;;;;;;;214.50;11.43;;;1.10;92.50;;;;;;5056898;28;20017;-73
2020/12/02 11:07:03;;;;;;;934.40;45.10;;;1.20;92.60;;;;;;5056937;28;20060;-73
2020/12/02 11:10:03;;;;;;;769.95;37.20;;;1.10;91.90;;;;;;5056991;28;20071;-73
2020/12/02 11:12:47;;;;;;;771.13;35.47;;;1.00;92.20;;;;;;5039222;28;20333;-73
2020/12/02 11:15:55;;;;;;;754.22;31.55;;;0.80;93.10;;;;;;5056659;28;20033;-73
2020/12/02 11:18:36;;;;;;;319.60;13.25;;;0.80;93.30;;;;;;5045720;28;20045;-73
2020/12/02 11:21:22;;;;;;;52.38;5.10;;;0.70;93.50;;;;;;5056374;28;20332;-73
2020/12/02 11:24:07;;;;;;;;;;;0.90;93.80;;;;;;5057191;28;20409;-73
2020/12/02 11:26:36;;;;;;;39.25;4.40;;;0.90;93.80;;;;;;5056916;28;19912;-73
2020/12/02 11:29:10;;;;;;;172.57;7.55;;;1.00;93.30;;;;;;5056656;28;20028;-73
2020/12/02 11:31:44;;;;;;;169.70;9.65;;;1.00;93.40;;;;;;5038958;28;20032;-73
2020/12/02 11:34:23;;;;;;;219.50;8.25;;;1.00;93.70;;;;;;5038858;28;20039;-73
2020/12/02 11:37:13;;;;;;;4.65;3.60;;;1.00;93.30;;;;;;5056776;28;20025;-73
2020/12/02 11:40:21;;;;;;;3.72;3.08;;;1.00;93.60;;;;;;5057145;28;20057;-73
2020/12/02 11:43:00;;;;;;;4.85;3.95;;;1.20;94.10;;;;;;4975985;28;20456;-73
2020/12/02 11:45:36;;;;;;;72.75;6.53;;;1.30;93.70;;;;;;5051043;28;20033;-73
2020/12/02 11:48:22;;;;;;;212.20;14.38;;;1.40;92.80;;;;;;5056486;28;20037;-73
2020/12/02 11:51:15;;;;;;;96.65;7.07;;;1.40;92.30;;;;;;5056567;28;20029;-73
2020/12/02 11:53:55;;;;;;;19.48;10.50;;;1.30;91.80;;;;;;5038688;28;20032;-73
2020/12/02 11:56:28;;;;;;;5.32;3.45;;;1.30;92.60;;;;;;5056546;28;20033;-73
2020/12/02 11:58:58;;;;;;;2.50;1.85;;;1.40;92.70;;;;;;5038667;28;20079;-73
2020/12/02 12:01:47;;;;;;;4.63;4.03;;;1.60;92.80;;;;;;5056562;28;20090;-72
2020/12/02 12:04:30;;;;;;;4.38;3.50;;;1.60;92.10;;;;;;5056181;28;20360;-73
2020/12/02 12:07:04;;;;;;;3.55;3.13;;;1.60;92.10;;;;;;5056661;28;20029;-73
2020/12/02 12:09:37;;;;;;;3.00;2.13;;;1.60;92.10;;;;;;5056353;28;20025;-73
2020/12/02 12:12:19;;;;;;;1.48;1.10;;;1.60;92.30;;;;;;5056328;28;20033;-73
2020/12/02 12:15:06;;;;;;;3.55;2.55;;;1.60;92.40;;;;;;5056197;28;20372;-73
2020/12/02 12:17:40;;;;;;;3.90;3.20;;;1.70;92.10;;;;;;5056083;28;20060;-73
2020/12/02 12:20:15;;;;;;;2.25;1.70;;;1.60;91.90;;;;;;5038453;28;20013;-73
2020/12/02 12:22:56;;;;;;;2.00;1.50;;;1.40;93.30;;;;;;5038686;28;20369;-73
2020/12/02 12:25:25;;;;;;;1.70;1.50;;;1.50;94.00;;;;;;5056374;28;20009;-73
2020/12/02 12:27:58;;;;;;;2.47;1.40;;;1.50;93.80;;;;;;5056082;28;20109;-73
2020/12/02 12:30:24;;;;;;;1.30;0.88;;;1.60;94.20;;;;;;5056156;28;20079;-73
2020/12/02 12:33:12;;;;;;;1.20;1.02;;;1.80;93.70;;;;;;5059411;28;20416;-73
2020/12/02 12:35:43;;;;;;;1.00;0.70;;;1.90;93.30;;;;;;5059792;28;20024;-73
2020/12/02 12:38:23;;;;;;;1.00;0.70;;;2.00;92.40;;;;;;5059684;28;20116;-73
2020/12/02 12:41:08;;;;;;;0.95;0.50;;;2.20;91.10;;;;;;5059922;28;20009;-73
2020/12/02 12:44:01;;;;;;;1.10;0.60;;;2.40;90.00;;;;;;5059820;28;20402;-74
2020/12/02 12:46:46;;;;;;;1.00;0.68;;;2.60;88.80;;;;;;5058870;28;20067;-73
2020/12/02 12:49:15;;;;;;;1.10;0.88;;;2.70;90.00;;;;;;5059848;28;20037;-73
2020/12/02 12:51:46;;;;;;;1.90;1.60;;;2.70;91.20;;;;;;5059492;28;20147;-73
2020/12/02 12:54:19;;;;;;;2.00;1.30;;;2.70;90.10;;;;;;5059497;28;20090;-73
2020/12/02 12:56:45;;;;;;;2.72;1.70;;;2.70;90.80;;;;;;5059487;28;20028;-73
2020/12/02 12:59:14;;;;;;;4.30;3.90;;;2.60;91.20;;;;;;5059497;28;20033;-73
2020/12/02 13:01:41;;;;;;;3.70;3.17;;;2.50;90.30;;;;;;5059277;28;20071;-73
2020/12/02 13:04:11;;;;;;;2.88;2.10;;;2.20;91.50;;;;;;5059229;28;20025;-73
2020/12/02 13:07:05;;;;;;;2.72;2.20;;;2.10;92.60;;;;;;5059255;28;20322;-73
2020/12/02 13:09:44;;;;;;;2.47;1.80;;;2.10;93.30;;;;;;5059118;28;20029;-73
2020/12/02 13:12:22;;;;;;;1.63;1.25;;;2.00;94.10;;;;;;5059234;28;20025;-73
2020/12/02 13:15:03;;;;;;;2.05;1.50;;;2.10;94.00;;;;;;5059038;28;20432;-73